sensor_id;sensor_type;location;lat;lon;timestamp;P1;durP1;ratioP1;P2;durP2;ratioP2
23988;SDS011;12202;52.136;5.592;2022-10-04T00:02:17;35.83;;;15.73;;
23988;SDS011;12202;52.136;5.592;2022-10-04T00:04:45;35.78;;;15.43;;
23988;SDS011;12202;52.136;5.592;2022-10-04T00:09:42;27.98;;;14.88;;
23988;SDS011;12202;52.136;5.592;2022-10-04T00:12:18;30.10;;;15.25;;
23988;SDS011;12202;52.136;5.592;2022-10-04T00:14:44;28.70;;;14.68;;
23988;SDS011;12202;52.136;5.592;2022-10-04T00:17:11;33.25;;;15.15;;
23988;SDS011;12202;52.136;5.592;2022-10-04T00:19:40;30.67;;;14.90;;
23988;SDS011;12202;52.136;5.592;2022-10-04T00:24:35;26.48;;;16.45;;
23988;SDS011;12202;52.136;5.592;2022-10-04T00:29:37;32.20;;;16.13;;
23988;SDS011;12202;52.136;5.592;2022-10-04T00:37:31;35.80;;;17.80;;
23988;SDS011;12202;52.136;5.592;2022-10-04T00:40:15;37.15;;;18.45;;
23988;SDS011;12202;52.136;5.592;2022-10-04T00:42:45;30.80;;;17.63;;
23988;SDS011;12202;52.136;5.592;2022-10-04T00:45:15;30.27;;;18.08;;
23988;SDS011;12202;52.136;5.592;2022-10-04T00:52:57;33.10;;;18.85;;
23988;SDS011;12202;52.136;5.592;2022-10-04T00:55:29;34.72;;;18.63;;
23988;SDS011;12202;52.136;5.592;2022-10-04T00:57:58;36.75;;;18.40;;
23988;SDS011;12202;52.136;5.592;2022-10-04T01:00:24;36.03;;;18.30;;
23988;SDS011;12202;52.136;5.592;2022-10-04T01:02:57;36.90;;;19.70;;
23988;SDS011;12202;52.136;5.592;2022-10-04T01:05:31;35.30;;;19.83;;
23988;SDS011;12202;52.136;5.592;2022-10-04T01:10:58;37.83;;;20.02;;
23988;SDS011;12202;52.136;5.592;2022-10-04T01:13:28;39.15;;;19.90;;
23988;SDS011;12202;52.136;5.592;2022-10-04T01:18:30;33.55;;;20.00;;
23988;SDS011;12202;52.136;5.592;2022-10-04T01:23:39;39.28;;;20.50;;
23988;SDS011;12202;52.136;5.592;2022-10-04T01:31:20;41.17;;;20.73;;
23988;SDS011;12202;52.136;5.592;2022-10-04T01:33:46;38.03;;;20.67;;
23988;SDS011;12202;52.136;5.592;2022-10-04T01:36:12;34.88;;;19.63;;
23988;SDS011;12202;52.136;5.592;2022-10-04T01:38:38;47.92;;;21.30;;
23988;SDS011;12202;52.136;5.592;2022-10-04T01:41:04;48.70;;;21.95;;
23988;SDS011;12202;52.136;5.592;2022-10-04T01:43:34;40.92;;;22.58;;
23988;SDS011;12202;52.136;5.592;2022-10-04T01:46:05;34.88;;;20.40;;
23988;SDS011;12202;52.136;5.592;2022-10-04T01:48:34;41.72;;;20.55;;
23988;SDS011;12202;52.136;5.592;2022-10-04T01:51:03;29.98;;;19.48;;
23988;SDS011;12202;52.136;5.592;2022-10-04T01:53:53;37.65;;;21.67;;
23988;SDS011;12202;52.136;5.592;2022-10-04T01:56:22;40.03;;;21.15;;
23988;SDS011;12202;52.136;5.592;2022-10-04T01:58:51;38.53;;;22.70;;
23988;SDS011;12202;52.136;5.592;2022-10-04T02:04:07;39.47;;;21.38;;
23988;SDS011;12202;52.136;5.592;2022-10-04T02:06:36;39.08;;;21.75;;
23988;SDS011;12202;52.136;5.592;2022-10-04T02:09:11;47.13;;;22.98;;
23988;SDS011;12202;52.136;5.592;2022-10-04T02:11:37;47.53;;;23.55;;
23988;SDS011;12202;52.136;5.592;2022-10-04T02:14:05;36.78;;;20.48;;
23988;SDS011;12202;52.136;5.592;2022-10-04T02:16:39;39.80;;;22.73;;
23988;SDS011;12202;52.136;5.592;2022-10-04T02:19:06;36.53;;;21.65;;
23988;SDS011;12202;52.136;5.592;2022-10-04T02:21:34;37.00;;;22.42;;
23988;SDS011;12202;52.136;5.592;2022-10-04T02:24:00;45.65;;;23.05;;
23988;SDS011;12202;52.136;5.592;2022-10-04T02:26:26;40.78;;;23.90;;
23988;SDS011;12202;52.136;5.592;2022-10-04T02:28:52;41.13;;;22.85;;
23988;SDS011;12202;52.136;5.592;2022-10-04T02:31:20;39.20;;;22.70;;
23988;SDS011;12202;52.136;5.592;2022-10-04T02:34:05;41.80;;;23.20;;
23988;SDS011;12202;52.136;5.592;2022-10-04T02:36:32;44.17;;;24.38;;
23988;SDS011;12202;52.136;5.592;2022-10-04T02:39:05;34.33;;;23.23;;
23988;SDS011;12202;52.136;5.592;2022-10-04T02:41:49;39.75;;;24.45;;
23988;SDS011;12202;52.136;5.592;2022-10-04T02:44:20;44.78;;;23.63;;
23988;SDS011;12202;52.136;5.592;2022-10-04T02:46:55;41.53;;;26.35;;
23988;SDS011;12202;52.136;5.592;2022-10-04T02:49:37;42.75;;;24.85;;
23988;SDS011;12202;52.136;5.592;2022-10-04T02:52:22;38.60;;;23.80;;
23988;SDS011;12202;52.136;5.592;2022-10-04T02:54:56;44.83;;;25.48;;
23988;SDS011;12202;52.136;5.592;2022-10-04T02:57:25;36.50;;;23.48;;
23988;SDS011;12202;52.136;5.592;2022-10-04T02:59:54;41.53;;;23.92;;
23988;SDS011;12202;52.136;5.592;2022-10-04T03:02:28;46.05;;;26.77;;
23988;SDS011;12202;52.136;5.592;2022-10-04T03:04:55;46.28;;;23.85;;
23988;SDS011;12202;52.136;5.592;2022-10-04T03:07:23;42.33;;;24.30;;
23988;SDS011;12202;52.136;5.592;2022-10-04T03:09:49;50.78;;;25.02;;
23988;SDS011;12202;52.136;5.592;2022-10-04T03:12:15;42.85;;;23.95;;
23988;SDS011;12202;52.136;5.592;2022-10-04T03:14:42;36.50;;;24.83;;
23988;SDS011;12202;52.136;5.592;2022-10-04T03:17:09;43.20;;;25.77;;
23988;SDS011;12202;52.136;5.592;2022-10-04T03:19:36;45.60;;;26.05;;
23988;SDS011;12202;52.136;5.592;2022-10-04T03:22:09;37.10;;;24.10;;
23988;SDS011;12202;52.136;5.592;2022-10-04T03:24:37;42.33;;;26.15;;
23988;SDS011;12202;52.136;5.592;2022-10-04T03:27:07;42.33;;;25.17;;
23988;SDS011;12202;52.136;5.592;2022-10-04T03:29:34;47.33;;;26.27;;
23988;SDS011;12202;52.136;5.592;2022-10-04T03:32:04;44.25;;;26.15;;
23988;SDS011;12202;52.136;5.592;2022-10-04T03:34:34;42.70;;;26.17;;
23988;SDS011;12202;52.136;5.592;2022-10-04T03:37:01;48.50;;;25.73;;
23988;SDS011;12202;52.136;5.592;2022-10-04T03:39:28;44.42;;;26.73;;
23988;SDS011;12202;52.136;5.592;2022-10-04T03:41:57;47.05;;;26.33;;
23988;SDS011;12202;52.136;5.592;2022-10-04T03:44:24;42.40;;;26.30;;
23988;SDS011;12202;52.136;5.592;2022-10-04T03:46:50;40.70;;;27.88;;
23988;SDS011;12202;52.136;5.592;2022-10-04T03:49:24;42.42;;;25.23;;
23988;SDS011;12202;52.136;5.592;2022-10-04T03:51:54;44.10;;;26.40;;
23988;SDS011;12202;52.136;5.592;2022-10-04T03:54:22;45.67;;;26.17;;
23988;SDS011;12202;52.136;5.592;2022-10-04T03:56:51;38.33;;;25.02;;
23988;SDS011;12202;52.136;5.592;2022-10-04T03:59:18;41.72;;;25.27;;
23988;SDS011;12202;52.136;5.592;2022-10-04T04:04:25;39.20;;;26.75;;
23988;SDS011;12202;52.136;5.592;2022-10-04T04:07:02;46.88;;;27.45;;
23988;SDS011;12202;52.136;5.592;2022-10-04T04:11:55;39.30;;;27.08;;
23988;SDS011;12202;52.136;5.592;2022-10-04T04:14:23;50.13;;;28.00;;
23988;SDS011;12202;52.136;5.592;2022-10-04T04:16:51;39.72;;;26.92;;
23988;SDS011;12202;52.136;5.592;2022-10-04T04:19:18;46.00;;;27.20;;
23988;SDS011;12202;52.136;5.592;2022-10-04T04:21:47;48.65;;;27.23;;
23988;SDS011;12202;52.136;5.592;2022-10-04T04:24:24;48.33;;;26.88;;
23988;SDS011;12202;52.136;5.592;2022-10-04T04:26:53;43.92;;;26.50;;
23988;SDS011;12202;52.136;5.592;2022-10-04T04:29:22;48.55;;;27.75;;
23988;SDS011;12202;52.136;5.592;2022-10-04T04:31:51;52.58;;;29.30;;
23988;SDS011;12202;52.136;5.592;2022-10-04T04:34:18;47.53;;;30.08;;
23988;SDS011;12202;52.136;5.592;2022-10-04T04:36:45;46.53;;;28.35;;
23988;SDS011;12202;52.136;5.592;2022-10-04T04:42:43;37.15;;;25.60;;
23988;SDS011;12202;52.136;5.592;2022-10-04T04:44:49;47.55;;;28.20;;
23988;SDS011;12202;52.136;5.592;2022-10-04T04:48:01;56.55;;;29.40;;
23988;SDS011;12202;52.136;5.592;2022-10-04T04:50:05;40.83;;;28.00;;
23988;SDS011;12202;52.136;5.592;2022-10-04T04:52:32;55.72;;;32.35;;
23988;SDS011;12202;52.136;5.592;2022-10-04T04:54:58;53.22;;;29.95;;
23988;SDS011;12202;52.136;5.592;2022-10-04T04:57:25;51.45;;;28.15;;
23988;SDS011;12202;52.136;5.592;2022-10-04T04:59:56;47.42;;;28.60;;
23988;SDS011;12202;52.136;5.592;2022-10-04T05:02:35;46.25;;;27.17;;
23988;SDS011;12202;52.136;5.592;2022-10-04T05:05:21;39.92;;;27.33;;
23988;SDS011;12202;52.136;5.592;2022-10-04T05:07:48;47.13;;;28.20;;
23988;SDS011;12202;52.136;5.592;2022-10-04T05:10:24;50.70;;;28.80;;
23988;SDS011;12202;52.136;5.592;2022-10-04T05:12:54;51.58;;;29.02;;
23988;SDS011;12202;52.136;5.592;2022-10-04T05:15:20;59.13;;;30.30;;
23988;SDS011;12202;52.136;5.592;2022-10-04T05:17:47;41.78;;;27.98;;
23988;SDS011;12202;52.136;5.592;2022-10-04T05:20:13;52.20;;;29.83;;
23988;SDS011;12202;52.136;5.592;2022-10-04T05:22:40;52.08;;;28.85;;
23988;SDS011;12202;52.136;5.592;2022-10-04T05:25:11;51.50;;;29.63;;
23988;SDS011;12202;52.136;5.592;2022-10-04T05:27:40;61.88;;;30.35;;
23988;SDS011;12202;52.136;5.592;2022-10-04T05:35:19;55.38;;;31.30;;
23988;SDS011;12202;52.136;5.592;2022-10-04T05:37:57;50.38;;;31.27;;
23988;SDS011;12202;52.136;5.592;2022-10-04T05:40:27;55.72;;;31.60;;
23988;SDS011;12202;52.136;5.592;2022-10-04T05:42:55;57.67;;;31.75;;
23988;SDS011;12202;52.136;5.592;2022-10-04T05:45:25;53.85;;;31.38;;
23988;SDS011;12202;52.136;5.592;2022-10-04T05:47:52;47.17;;;30.67;;
23988;SDS011;12202;52.136;5.592;2022-10-04T05:50:22;53.70;;;31.98;;
23988;SDS011;12202;52.136;5.592;2022-10-04T05:52:50;51.47;;;31.92;;
23988;SDS011;12202;52.136;5.592;2022-10-04T05:55:21;46.85;;;31.35;;
23988;SDS011;12202;52.136;5.592;2022-10-04T06:00:18;54.97;;;30.73;;
23988;SDS011;12202;52.136;5.592;2022-10-04T06:05:20;55.80;;;31.02;;
23988;SDS011;12202;52.136;5.592;2022-10-04T06:10:37;57.25;;;31.42;;
23988;SDS011;12202;52.136;5.592;2022-10-04T06:15:51;53.03;;;30.75;;
23988;SDS011;12202;52.136;5.592;2022-10-04T06:23:30;49.80;;;30.75;;
23988;SDS011;12202;52.136;5.592;2022-10-04T06:26:00;54.00;;;29.50;;
23988;SDS011;12202;52.136;5.592;2022-10-04T06:28:29;51.63;;;29.98;;
23988;SDS011;12202;52.136;5.592;2022-10-04T06:44:12;52.25;;;29.67;;
23988;SDS011;12202;52.136;5.592;2022-10-04T06:49:32;43.35;;;28.13;;
23988;SDS011;12202;52.136;5.592;2022-10-04T06:52:07;51.90;;;28.67;;
23988;SDS011;12202;52.136;5.592;2022-10-04T06:59:50;54.83;;;29.70;;
23988;SDS011;12202;52.136;5.592;2022-10-04T07:02:24;53.67;;;32.50;;
23988;SDS011;12202;52.136;5.592;2022-10-04T07:04:59;53.03;;;32.70;;
23988;SDS011;12202;52.136;5.592;2022-10-04T07:07:33;49.75;;;30.10;;
23988;SDS011;12202;52.136;5.592;2022-10-04T07:10:07;50.85;;;29.77;;
23988;SDS011;12202;52.136;5.592;2022-10-04T07:12:39;47.65;;;30.83;;
23988;SDS011;12202;52.136;5.592;2022-10-04T07:15:11;46.53;;;29.10;;
23988;SDS011;12202;52.136;5.592;2022-10-04T07:17:41;51.17;;;31.30;;
23988;SDS011;12202;52.136;5.592;2022-10-04T07:20:21;47.97;;;30.15;;
23988;SDS011;12202;52.136;5.592;2022-10-04T07:22:51;59.80;;;33.30;;
23988;SDS011;12202;52.136;5.592;2022-10-04T07:25:26;50.75;;;30.92;;
23988;SDS011;12202;52.136;5.592;2022-10-04T07:27:57;52.00;;;31.00;;
23988;SDS011;12202;52.136;5.592;2022-10-04T07:31:02;51.72;;;29.85;;
23988;SDS011;12202;52.136;5.592;2022-10-04T07:33:30;53.65;;;31.00;;
23988;SDS011;12202;52.136;5.592;2022-10-04T07:36:06;56.00;;;28.55;;
23988;SDS011;12202;52.136;5.592;2022-10-04T07:38:33;49.92;;;27.90;;
23988;SDS011;12202;52.136;5.592;2022-10-04T07:41:07;53.75;;;26.08;;
23988;SDS011;12202;52.136;5.592;2022-10-04T07:43:37;45.47;;;25.45;;
23988;SDS011;12202;52.136;5.592;2022-10-04T07:48:49;44.08;;;25.42;;
23988;SDS011;12202;52.136;5.592;2022-10-04T07:51:23;44.17;;;25.45;;
23988;SDS011;12202;52.136;5.592;2022-10-04T07:53:59;39.78;;;23.80;;
23988;SDS011;12202;52.136;5.592;2022-10-04T08:01:38;36.25;;;22.45;;
23988;SDS011;12202;52.136;5.592;2022-10-04T08:04:16;40.20;;;21.77;;
23988;SDS011;12202;52.136;5.592;2022-10-04T08:09:25;29.75;;;19.40;;
23988;SDS011;12202;52.136;5.592;2022-10-04T08:11:57;33.38;;;18.55;;
23988;SDS011;12202;52.136;5.592;2022-10-04T08:14:31;29.30;;;17.92;;
23988;SDS011;12202;52.136;5.592;2022-10-04T08:25:03;31.27;;;16.38;;
23988;SDS011;12202;52.136;5.592;2022-10-04T08:30:07;27.63;;;15.77;;
23988;SDS011;12202;52.136;5.592;2022-10-04T08:48:59;36.67;;;15.85;;
23988;SDS011;12202;52.136;5.592;2022-10-04T08:57:12;27.35;;;14.95;;
23988;SDS011;12202;52.136;5.592;2022-10-04T09:07:29;27.45;;;15.70;;
23988;SDS011;12202;52.136;5.592;2022-10-04T09:12:46;35.05;;;14.63;;
23988;SDS011;12202;52.136;5.592;2022-10-04T09:15:19;26.10;;;13.48;;
23988;SDS011;12202;52.136;5.592;2022-10-04T09:20:42;28.10;;;13.50;;
23988;SDS011;12202;52.136;5.592;2022-10-04T09:33:35;22.58;;;13.27;;
23988;SDS011;12202;52.136;5.592;2022-10-04T09:46:23;28.70;;;12.60;;
23988;SDS011;12202;52.136;5.592;2022-10-04T09:51:35;25.23;;;13.27;;
23988;SDS011;12202;52.136;5.592;2022-10-04T10:12:56;17.80;;;10.98;;
23988;SDS011;12202;52.136;5.592;2022-10-04T10:16:09;20.60;;;11.82;;
23988;SDS011;12202;52.136;5.592;2022-10-04T10:34:12;22.42;;;11.88;;
23988;SDS011;12202;52.136;5.592;2022-10-04T10:58:07;22.20;;;11.50;;
23988;SDS011;12202;52.136;5.592;2022-10-04T11:14:27;18.88;;;11.27;;
23988;SDS011;12202;52.136;5.592;2022-10-04T11:17:03;21.58;;;11.40;;
23988;SDS011;12202;52.136;5.592;2022-10-04T11:41:28;19.05;;;8.93;;
23988;SDS011;12202;52.136;5.592;2022-10-04T11:46:30;18.88;;;9.82;;
23988;SDS011;12202;52.136;5.592;2022-10-04T11:49:13;22.52;;;9.25;;
23988;SDS011;12202;52.136;5.592;2022-10-04T11:52:06;18.92;;;10.35;;
23988;SDS011;12202;52.136;5.592;2022-10-04T12:07:41;22.45;;;9.93;;
23988;SDS011;12202;52.136;5.592;2022-10-04T12:10:14;17.75;;;9.18;;
23988;SDS011;12202;52.136;5.592;2022-10-04T12:15:33;20.00;;;9.65;;
23988;SDS011;12202;52.136;5.592;2022-10-04T12:28:46;20.17;;;8.88;;
23988;SDS011;12202;52.136;5.592;2022-10-04T12:41:23;17.73;;;8.65;;
23988;SDS011;12202;52.136;5.592;2022-10-04T13:04:48;13.43;;;7.95;;
23988;SDS011;12202;52.136;5.592;2022-10-04T13:07:36;17.67;;;7.93;;
23988;SDS011;12202;52.136;5.592;2022-10-04T13:15:22;13.73;;;6.57;;
23988;SDS011;12202;52.136;5.592;2022-10-04T13:22:54;13.50;;;6.30;;
23988;SDS011;12202;52.136;5.592;2022-10-04T13:30:47;10.52;;;5.80;;
23988;SDS011;12202;52.136;5.592;2022-10-04T13:36:05;11.95;;;7.00;;
23988;SDS011;12202;52.136;5.592;2022-10-04T13:54:09;19.20;;;8.20;;
23988;SDS011;12202;52.136;5.592;2022-10-04T13:56:57;17.83;;;7.55;;
23988;SDS011;12202;52.136;5.592;2022-10-04T14:20:02;26.67;;;9.13;;
23988;SDS011;12202;52.136;5.592;2022-10-04T14:30:10;19.13;;;8.73;;
23988;SDS011;12202;52.136;5.592;2022-10-04T14:32:47;18.30;;;8.23;;
23988;SDS011;12202;52.136;5.592;2022-10-04T14:40:43;16.40;;;6.47;;
23988;SDS011;12202;52.136;5.592;2022-10-04T14:46:07;12.77;;;6.65;;
23988;SDS011;12202;52.136;5.592;2022-10-04T14:53:38;16.02;;;8.02;;
23988;SDS011;12202;52.136;5.592;2022-10-04T14:59:06;15.57;;;8.23;;
23988;SDS011;12202;52.136;5.592;2022-10-04T15:02:03;15.55;;;7.93;;
23988;SDS011;12202;52.136;5.592;2022-10-04T15:09:49;16.65;;;8.38;;
23988;SDS011;12202;52.136;5.592;2022-10-04T15:17:36;15.10;;;8.30;;
23988;SDS011;12202;52.136;5.592;2022-10-04T15:40:34;15.93;;;9.25;;
23988;SDS011;12202;52.136;5.592;2022-10-04T15:43:25;18.67;;;10.65;;
23988;SDS011;12202;52.136;5.592;2022-10-04T15:46:07;23.83;;;10.77;;
23988;SDS011;12202;52.136;5.592;2022-10-04T15:54:07;18.38;;;9.82;;
23988;SDS011;12202;52.136;5.592;2022-10-04T16:04:14;16.40;;;10.07;;
23988;SDS011;12202;52.136;5.592;2022-10-04T16:06:45;22.50;;;11.45;;
23988;SDS011;12202;52.136;5.592;2022-10-04T16:20:22;23.25;;;10.63;;
23988;SDS011;12202;52.136;5.592;2022-10-04T16:22:38;16.77;;;9.00;;
23988;SDS011;12202;52.136;5.592;2022-10-04T16:30:22;22.23;;;10.05;;
23988;SDS011;12202;52.136;5.592;2022-10-04T16:37:58;16.63;;;10.00;;
23988;SDS011;12202;52.136;5.592;2022-10-04T16:40:34;18.40;;;9.82;;
23988;SDS011;12202;52.136;5.592;2022-10-04T16:43:08;22.17;;;10.40;;
23988;SDS011;12202;52.136;5.592;2022-10-04T16:55:53;27.67;;;12.32;;
23988;SDS011;12202;52.136;5.592;2022-10-04T17:03:40;22.75;;;13.50;;
23988;SDS011;12202;52.136;5.592;2022-10-04T17:06:13;21.92;;;14.30;;
23988;SDS011;12202;52.136;5.592;2022-10-04T17:08:58;28.13;;;14.25;;
23988;SDS011;12202;52.136;5.592;2022-10-04T17:13:55;31.92;;;14.43;;
23988;SDS011;12202;52.136;5.592;2022-10-04T17:16:30;25.55;;;12.93;;
23988;SDS011;12202;52.136;5.592;2022-10-04T17:21:46;25.92;;;13.20;;
23988;SDS011;12202;52.136;5.592;2022-10-04T17:29:37;24.42;;;13.43;;
23988;SDS011;12202;52.136;5.592;2022-10-04T17:34:42;22.70;;;12.73;;
23988;SDS011;12202;52.136;5.592;2022-10-04T17:39:46;21.05;;;12.25;;
23988;SDS011;12202;52.136;5.592;2022-10-04T17:42:19;25.67;;;14.30;;
23988;SDS011;12202;52.136;5.592;2022-10-04T17:53:30;28.48;;;14.52;;
23988;SDS011;12202;52.136;5.592;2022-10-04T17:56:31;28.58;;;13.13;;
23988;SDS011;12202;52.136;5.592;2022-10-04T17:58:58;27.42;;;14.60;;
23988;SDS011;12202;52.136;5.592;2022-10-04T18:01:33;20.88;;;13.43;;
23988;SDS011;12202;52.136;5.592;2022-10-04T18:04:07;30.20;;;13.88;;
23988;SDS011;12202;52.136;5.592;2022-10-04T18:06:36;20.85;;;12.68;;
23988;SDS011;12202;52.136;5.592;2022-10-04T18:11:44;19.50;;;13.25;;
23988;SDS011;12202;52.136;5.592;2022-10-04T18:16:56;20.33;;;13.20;;
23988;SDS011;12202;52.136;5.592;2022-10-04T18:22:13;28.25;;;16.30;;
23988;SDS011;12202;52.136;5.592;2022-10-04T18:24:40;27.85;;;14.55;;
23988;SDS011;12202;52.136;5.592;2022-10-04T18:27:15;25.25;;;14.10;;
23988;SDS011;12202;52.136;5.592;2022-10-04T18:29:43;31.02;;;14.30;;
23988;SDS011;12202;52.136;5.592;2022-10-04T18:34:55;25.17;;;13.48;;
23988;SDS011;12202;52.136;5.592;2022-10-04T18:37:34;30.55;;;14.00;;
23988;SDS011;12202;52.136;5.592;2022-10-04T18:40:24;33.50;;;14.05;;
23988;SDS011;12202;52.136;5.592;2022-10-04T18:42:56;26.00;;;14.27;;
23988;SDS011;12202;52.136;5.592;2022-10-04T18:45:26;27.48;;;12.75;;
23988;SDS011;12202;52.136;5.592;2022-10-04T18:47:53;31.15;;;14.15;;
23988;SDS011;12202;52.136;5.592;2022-10-04T18:52:57;24.13;;;13.80;;
23988;SDS011;12202;52.136;5.592;2022-10-04T19:01:15;27.00;;;12.57;;
23988;SDS011;12202;52.136;5.592;2022-10-04T19:04:02;27.58;;;14.25;;
23988;SDS011;12202;52.136;5.592;2022-10-04T19:06:32;30.10;;;13.82;;
23988;SDS011;12202;52.136;5.592;2022-10-04T19:09:33;24.58;;;13.07;;
23988;SDS011;12202;52.136;5.592;2022-10-04T19:11:53;20.65;;;12.68;;
23988;SDS011;12202;52.136;5.592;2022-10-04T19:16:50;21.55;;;12.93;;
23988;SDS011;12202;52.136;5.592;2022-10-04T19:24:15;24.92;;;12.63;;
23988;SDS011;12202;52.136;5.592;2022-10-04T19:26:45;32.83;;;13.73;;
23988;SDS011;12202;52.136;5.592;2022-10-04T19:32:04;19.23;;;11.82;;
23988;SDS011;12202;52.136;5.592;2022-10-04T19:34:31;19.75;;;12.30;;
23988;SDS011;12202;52.136;5.592;2022-10-04T19:37:05;23.13;;;12.23;;
23988;SDS011;12202;52.136;5.592;2022-10-04T19:39:41;24.38;;;12.38;;
23988;SDS011;12202;52.136;5.592;2022-10-04T19:42:15;18.48;;;11.52;;
23988;SDS011;12202;52.136;5.592;2022-10-04T19:47:44;24.73;;;12.98;;
23988;SDS011;12202;52.136;5.592;2022-10-04T19:50:17;25.10;;;12.68;;
23988;SDS011;12202;52.136;5.592;2022-10-04T19:52:59;20.33;;;11.38;;
23988;SDS011;12202;52.136;5.592;2022-10-04T19:55:38;23.58;;;12.18;;
23988;SDS011;12202;52.136;5.592;2022-10-04T20:00:33;20.90;;;12.32;;
23988;SDS011;12202;52.136;5.592;2022-10-04T20:03:01;21.65;;;12.13;;
23988;SDS011;12202;52.136;5.592;2022-10-04T20:05:30;23.90;;;11.52;;
23988;SDS011;12202;52.136;5.592;2022-10-04T20:07:56;17.98;;;10.80;;
23988;SDS011;12202;52.136;5.592;2022-10-04T20:10:31;21.30;;;11.63;;
23988;SDS011;12202;52.136;5.592;2022-10-04T20:15:42;24.42;;;12.60;;
23988;SDS011;12202;52.136;5.592;2022-10-04T20:26:08;22.45;;;11.57;;
23988;SDS011;12202;52.136;5.592;2022-10-04T20:31:04;21.13;;;11.65;;
23988;SDS011;12202;52.136;5.592;2022-10-04T20:36:06;22.55;;;11.98;;
23988;SDS011;12202;52.136;5.592;2022-10-04T20:42:01;16.75;;;10.82;;
23988;SDS011;12202;52.136;5.592;2022-10-04T20:47:17;25.92;;;11.75;;
23988;SDS011;12202;52.136;5.592;2022-10-04T20:49:45;21.73;;;11.15;;
23988;SDS011;12202;52.136;5.592;2022-10-04T20:52:12;17.80;;;10.85;;
23988;SDS011;12202;52.136;5.592;2022-10-04T20:54:39;17.73;;;11.48;;
23988;SDS011;12202;52.136;5.592;2022-10-04T20:57:13;22.55;;;11.88;;
23988;SDS011;12202;52.136;5.592;2022-10-04T20:59:39;22.00;;;11.90;;
23988;SDS011;12202;52.136;5.592;2022-10-04T21:02:12;22.20;;;11.73;;
23988;SDS011;12202;52.136;5.592;2022-10-04T21:04:39;16.38;;;9.98;;
23988;SDS011;12202;52.136;5.592;2022-10-04T21:07:08;17.88;;;10.88;;
23988;SDS011;12202;52.136;5.592;2022-10-04T21:09:38;17.80;;;10.43;;
23988;SDS011;12202;52.136;5.592;2022-10-04T21:12:04;24.17;;;11.38;;
23988;SDS011;12202;52.136;5.592;2022-10-04T21:14:31;19.52;;;11.07;;
23988;SDS011;12202;52.136;5.592;2022-10-04T21:16:58;20.90;;;10.57;;
23988;SDS011;12202;52.136;5.592;2022-10-04T21:22:00;26.20;;;12.43;;
23988;SDS011;12202;52.136;5.592;2022-10-04T21:24:33;18.73;;;11.75;;
23988;SDS011;12202;52.136;5.592;2022-10-04T21:27:02;17.65;;;11.15;;
23988;SDS011;12202;52.136;5.592;2022-10-04T21:29:29;16.88;;;10.38;;
23988;SDS011;12202;52.136;5.592;2022-10-04T21:31:55;16.95;;;11.30;;
23988;SDS011;12202;52.136;5.592;2022-10-04T21:34:21;22.52;;;11.10;;
23988;SDS011;12202;52.136;5.592;2022-10-04T21:36:47;18.45;;;10.73;;
23988;SDS011;12202;52.136;5.592;2022-10-04T21:39:13;22.95;;;10.75;;
23988;SDS011;12202;52.136;5.592;2022-10-04T21:41:39;18.92;;;10.63;;
23988;SDS011;12202;52.136;5.592;2022-10-04T21:44:05;20.85;;;11.57;;
23988;SDS011;12202;52.136;5.592;2022-10-04T21:46:31;16.65;;;10.77;;
23988;SDS011;12202;52.136;5.592;2022-10-04T21:48:58;19.35;;;10.30;;
23988;SDS011;12202;52.136;5.592;2022-10-04T21:51:24;20.80;;;11.43;;
23988;SDS011;12202;52.136;5.592;2022-10-04T21:53:50;17.02;;;11.55;;
23988;SDS011;12202;52.136;5.592;2022-10-04T21:56:15;18.70;;;11.52;;
23988;SDS011;12202;52.136;5.592;2022-10-04T21:58:41;23.92;;;11.98;;
23988;SDS011;12202;52.136;5.592;2022-10-04T22:01:07;22.00;;;11.45;;
23988;SDS011;12202;52.136;5.592;2022-10-04T22:03:34;21.00;;;11.40;;
23988;SDS011;12202;52.136;5.592;2022-10-04T22:05:59;23.15;;;11.93;;
23988;SDS011;12202;52.136;5.592;2022-10-04T22:08:25;21.52;;;13.02;;
23988;SDS011;12202;52.136;5.592;2022-10-04T22:10:51;25.83;;;11.98;;
23988;SDS011;12202;52.136;5.592;2022-10-04T22:13:17;23.60;;;13.07;;
23988;SDS011;12202;52.136;5.592;2022-10-04T22:15:43;24.83;;;12.95;;
23988;SDS011;12202;52.136;5.592;2022-10-04T22:18:09;25.58;;;13.05;;
23988;SDS011;12202;52.136;5.592;2022-10-04T22:20:35;25.95;;;12.30;;
23988;SDS011;12202;52.136;5.592;2022-10-04T22:23:01;24.60;;;12.20;;
23988;SDS011;12202;52.136;5.592;2022-10-04T22:25:29;19.20;;;12.30;;
23988;SDS011;12202;52.136;5.592;2022-10-04T22:27:55;28.90;;;14.43;;
23988;SDS011;12202;52.136;5.592;2022-10-04T22:30:27;23.65;;;15.20;;
23988;SDS011;12202;52.136;5.592;2022-10-04T22:32:55;23.50;;;13.73;;
23988;SDS011;12202;52.136;5.592;2022-10-04T22:35:22;25.75;;;14.05;;
23988;SDS011;12202;52.136;5.592;2022-10-04T22:37:48;24.40;;;14.00;;
23988;SDS011;12202;52.136;5.592;2022-10-04T22:40:21;24.60;;;13.88;;
23988;SDS011;12202;52.136;5.592;2022-10-04T22:42:51;25.38;;;13.88;;
23988;SDS011;12202;52.136;5.592;2022-10-04T22:45:20;22.98;;;13.05;;
23988;SDS011;12202;52.136;5.592;2022-10-04T22:47:46;20.10;;;13.55;;
23988;SDS011;12202;52.136;5.592;2022-10-04T22:50:18;25.30;;;16.42;;
23988;SDS011;12202;52.136;5.592;2022-10-04T22:52:46;25.20;;;15.00;;
23988;SDS011;12202;52.136;5.592;2022-10-04T22:55:12;22.23;;;14.02;;
23988;SDS011;12202;52.136;5.592;2022-10-04T22:57:41;24.50;;;15.50;;
23988;SDS011;12202;52.136;5.592;2022-10-04T23:00:08;33.05;;;14.98;;
23988;SDS011;12202;52.136;5.592;2022-10-04T23:02:34;27.92;;;14.32;;
23988;SDS011;12202;52.136;5.592;2022-10-04T23:05:08;27.05;;;15.27;;
23988;SDS011;12202;52.136;5.592;2022-10-04T23:07:36;27.25;;;15.30;;
23988;SDS011;12202;52.136;5.592;2022-10-04T23:10:02;29.70;;;16.00;;
23988;SDS011;12202;52.136;5.592;2022-10-04T23:12:28;31.83;;;16.42;;
23988;SDS011;12202;52.136;5.592;2022-10-04T23:14:54;30.35;;;15.23;;
23988;SDS011;12202;52.136;5.592;2022-10-04T23:17:25;28.77;;;15.15;;
23988;SDS011;12202;52.136;5.592;2022-10-04T23:19:55;27.25;;;15.70;;
23988;SDS011;12202;52.136;5.592;2022-10-04T23:22:25;27.05;;;15.23;;
23988;SDS011;12202;52.136;5.592;2022-10-04T23:24:51;27.25;;;15.82;;
23988;SDS011;12202;52.136;5.592;2022-10-04T23:27:18;32.25;;;15.88;;
23988;SDS011;12202;52.136;5.592;2022-10-04T23:29:44;26.75;;;15.48;;
23988;SDS011;12202;52.136;5.592;2022-10-04T23:32:12;28.42;;;15.80;;
23988;SDS011;12202;52.136;5.592;2022-10-04T23:34:39;28.55;;;15.50;;
23988;SDS011;12202;52.136;5.592;2022-10-04T23:37:12;26.58;;;15.65;;
23988;SDS011;12202;52.136;5.592;2022-10-04T23:39:38;33.75;;;18.40;;
23988;SDS011;12202;52.136;5.592;2022-10-04T23:42:38;27.00;;;16.25;;
23988;SDS011;12202;52.136;5.592;2022-10-04T23:44:57;28.55;;;14.73;;
23988;SDS011;12202;52.136;5.592;2022-10-04T23:47:34;28.05;;;15.35;;
23988;SDS011;12202;52.136;5.592;2022-10-04T23:50:00;22.40;;;15.00;;
23988;SDS011;12202;52.136;5.592;2022-10-04T23:52:30;29.70;;;15.65;;
23988;SDS011;12202;52.136;5.592;2022-10-04T23:54:58;25.80;;;14.80;;
23988;SDS011;12202;52.136;5.592;2022-10-04T23:57:25;28.80;;;15.77;;
23988;SDS011;12202;52.136;5.592;2022-10-04T23:59:51;25.45;;;15.23;;
